createdAt,value
2018-11-04T00:00:24.268Z,10.10
2018-11-04T00:02:50.285Z,10.10
2018-11-04T00:05:16.296Z,10.20
2018-11-04T00:07:43.022Z,10.10
2018-11-04T00:10:09.029Z,10.10
2018-11-04T00:12:35.034Z,10.10
2018-11-04T00:15:01.041Z,10.10
2018-11-04T00:17:27.024Z,10.20
2018-11-04T00:19:53.778Z,10.20
2018-11-04T00:22:19.798Z,10.20
2018-11-04T00:24:46.553Z,10.40
2018-11-04T00:27:12.594Z,10.30
2018-11-04T00:29:38.538Z,10.40
2018-11-04T00:32:04.515Z,10.40
2018-11-04T00:34:30.550Z,10.40
2018-11-04T00:36:56.530Z,10.40
2018-11-04T00:39:22.523Z,10.50
2018-11-04T00:41:48.521Z,10.50
2018-11-04T00:44:14.504Z,10.60
2018-11-04T00:46:40.498Z,10.50
2018-11-04T00:49:06.506Z,10.60
2018-11-04T00:51:32.480Z,10.70
2018-11-04T00:53:58.478Z,10.60
2018-11-04T00:56:24.468Z,10.70
2018-11-04T00:58:50.473Z,10.70
2018-11-04T01:01:16.465Z,10.70
2018-11-04T01:03:42.448Z,10.80
2018-11-04T01:06:08.461Z,10.80
2018-11-04T01:08:34.455Z,10.80
2018-11-04T01:11:01.228Z,10.80
2018-11-04T01:13:27.216Z,10.80
2018-11-04T01:15:53.196Z,10.90
2018-11-04T01:18:19.184Z,10.80
2018-11-04T01:20:45.152Z,10.70
2018-11-04T01:23:11.146Z,10.60
2018-11-04T01:25:37.133Z,10.60
2018-11-04T01:28:03.877Z,10.60
2018-11-04T01:30:30.719Z,10.60
2018-11-04T01:32:57.344Z,10.60
2018-11-04T01:35:24.125Z,10.60
2018-11-04T01:37:50.824Z,10.60
2018-11-04T01:40:16.791Z,10.60
2018-11-04T01:42:42.805Z,10.60
2018-11-04T01:45:08.809Z,10.60
2018-11-04T01:47:34.808Z,10.50
2018-11-04T01:50:00.796Z,10.50
2018-11-04T01:52:26.772Z,10.40
2018-11-04T01:54:53.497Z,10.30
2018-11-04T01:57:19.496Z,10.30
2018-11-04T01:59:45.460Z,10.30
2018-11-04T02:02:12.168Z,10.30
2018-11-04T02:04:38.182Z,10.40
2018-11-04T02:07:04.232Z,10.50
2018-11-04T02:09:30.245Z,10.40
2018-11-04T02:11:56.276Z,10.40
2018-11-04T02:14:23.041Z,10.30
2018-11-04T02:16:50.068Z,10.30
2018-11-04T02:19:16.085Z,10.30
2018-11-04T02:21:42.111Z,10.30
2018-11-04T02:24:08.126Z,10.30
2018-11-04T02:26:34.161Z,10.20
2018-11-04T02:29:00.200Z,10.20
2018-11-04T02:31:26.262Z,10.10
2018-11-04T02:33:52.300Z,10.20
2018-11-04T02:36:18.334Z,10.20
2018-11-04T02:38:44.346Z,10.20
2018-11-04T02:41:10.384Z,10.40
2018-11-04T02:43:36.393Z,10.20
2018-11-04T02:46:02.407Z,10.30
2018-11-04T02:48:28.413Z,10.30
2018-11-04T02:50:54.404Z,10.30
2018-11-04T02:53:20.401Z,10.30
2018-11-04T02:55:46.566Z,10.30
2018-11-04T02:58:13.285Z,10.30
2018-11-04T03:00:39.324Z,10.30
2018-11-04T03:03:05.322Z,10.30
2018-11-04T03:05:31.432Z,10.30
2018-11-04T03:07:57.477Z,10.30
2018-11-04T03:10:23.461Z,10.30
2018-11-04T03:12:49.463Z,10.30
2018-11-04T03:15:15.483Z,10.30
2018-11-04T03:17:41.693Z,10.30
2018-11-04T03:20:07.749Z,10.20
2018-11-04T03:22:33.752Z,10.30
2018-11-04T03:25:00.510Z,10.40
2018-11-04T03:27:26.514Z,10.40
2018-11-04T03:29:53.306Z,10.60
2018-11-04T03:32:19.313Z,10.50
2018-11-04T03:34:45.422Z,10.60
2018-11-04T03:37:11.421Z,10.70
2018-11-04T03:39:38.179Z,10.60
2018-11-04T03:42:08.148Z,10.60
2018-11-04T03:44:34.141Z,10.70
2018-11-04T03:47:00.126Z,10.60
2018-11-04T03:49:26.853Z,10.60
2018-11-04T03:51:52.847Z,10.60
2018-11-04T03:54:18.829Z,10.70
2018-11-04T03:56:44.822Z,10.70
2018-11-04T03:59:10.772Z,10.70
2018-11-04T04:01:37.484Z,10.70
2018-11-04T04:04:03.492Z,10.70
2018-11-04T04:06:29.510Z,10.80
2018-11-04T04:08:55.501Z,10.80
2018-11-04T04:11:21.477Z,10.60
2018-11-04T04:13:47.427Z,10.60
2018-11-04T04:16:13.400Z,10.50
2018-11-04T04:18:39.376Z,10.40
2018-11-04T04:21:05.376Z,10.40
2018-11-04T04:23:31.343Z,10.50
2018-11-04T04:25:57.319Z,10.60
2018-11-04T04:28:23.294Z,10.50
2018-11-04T04:30:49.288Z,10.50
2018-11-04T04:33:15.271Z,10.60
2018-11-04T04:35:41.255Z,10.50
2018-11-04T04:38:07.225Z,10.50
2018-11-04T04:40:33.191Z,10.60
2018-11-04T04:42:59.174Z,10.70
2018-11-04T04:45:25.157Z,10.80
2018-11-04T04:47:51.145Z,10.90
2018-11-04T04:50:17.121Z,10.80
2018-11-04T04:52:43.094Z,10.90
2018-11-04T04:55:09.820Z,10.90
2018-11-04T04:57:36.531Z,10.80
2018-11-04T05:00:02.526Z,10.80
2018-11-04T05:02:28.516Z,10.90
2018-11-04T05:04:55.235Z,10.70
2018-11-04T05:07:21.196Z,10.60
2018-11-04T05:09:47.171Z,10.70
2018-11-04T05:12:13.141Z,10.60
2018-11-04T05:14:39.098Z,10.70
2018-11-04T05:17:05.064Z,10.70
2018-11-04T05:19:31.052Z,10.70
2018-11-04T05:21:57.057Z,10.80
2018-11-04T05:24:23.029Z,10.80
2018-11-04T05:26:49.774Z,10.60
2018-11-04T05:29:16.677Z,10.70
2018-11-04T05:31:42.681Z,10.70
2018-11-04T05:34:08.717Z,10.60
2018-11-04T05:36:34.684Z,10.70
2018-11-04T05:39:01.398Z,10.60
2018-11-04T05:41:28.156Z,10.50
2018-11-04T05:43:54.915Z,10.60
2018-11-04T05:46:20.944Z,10.60
2018-11-04T05:49:34.304Z,10.60
2018-11-04T05:52:00.417Z,10.70
2018-11-04T05:54:26.436Z,10.70
2018-11-04T05:56:52.435Z,10.70
2018-11-04T05:59:18.446Z,10.70
2018-11-04T06:01:44.553Z,10.70
2018-11-04T06:04:10.797Z,10.70
2018-11-04T06:06:36.800Z,10.70
2018-11-04T06:09:02.805Z,10.70
2018-11-04T06:11:28.806Z,10.60
2018-11-04T06:13:54.853Z,10.60
2018-11-04T06:16:20.976Z,10.50
2018-11-04T06:18:46.943Z,10.60
2018-11-04T06:21:13.673Z,10.50
2018-11-04T06:23:39.680Z,10.50
2018-11-04T06:26:05.665Z,10.40
2018-11-04T06:28:31.632Z,10.50
2018-11-04T06:30:57.624Z,10.50
2018-11-04T06:33:23.647Z,10.50
2018-11-04T06:35:49.672Z,10.60
2018-11-04T06:38:15.710Z,10.70
2018-11-04T06:40:41.747Z,10.60
2018-11-04T06:43:07.828Z,10.60
2018-11-04T06:45:33.815Z,10.60
2018-11-04T06:47:59.784Z,10.60
2018-11-04T06:50:25.756Z,10.60
2018-11-04T06:52:51.735Z,10.60
2018-11-04T06:55:17.711Z,10.70
2018-11-04T06:57:43.678Z,10.70
2018-11-04T07:00:09.721Z,10.60
2018-11-04T07:02:35.630Z,10.60
2018-11-04T07:05:01.612Z,10.60
2018-11-04T07:07:35.521Z,10.60
2018-11-04T07:10:02.251Z,10.70
2018-11-04T07:12:28.226Z,10.60
2018-11-04T07:14:54.187Z,10.70
2018-11-04T07:17:20.157Z,10.70
2018-11-04T07:19:46.170Z,10.70
2018-11-04T07:22:12.894Z,10.60
2018-11-04T07:24:39.644Z,10.70
2018-11-04T07:27:06.405Z,10.90
2018-11-04T07:29:32.381Z,10.90
2018-11-04T07:31:58.429Z,10.90
2018-11-04T07:34:24.378Z,10.90
2018-11-04T07:36:50.348Z,10.90
2018-11-04T07:39:16.314Z,10.90
2018-11-04T07:41:42.313Z,10.90
2018-11-04T07:44:09.083Z,11.10
2018-11-04T07:46:35.019Z,11.10
2018-11-04T07:49:00.991Z,11.10
2018-11-04T07:51:27.032Z,11.20
2018-11-04T07:53:52.933Z,11.20
2018-11-04T07:56:18.926Z,11.10
2018-11-04T07:58:44.900Z,11.10
2018-11-04T08:01:11.617Z,11.00
2018-11-04T08:03:37.624Z,11.00
2018-11-04T08:06:03.608Z,11.20
2018-11-04T08:08:29.588Z,11.10
2018-11-04T08:10:55.584Z,11.10
2018-11-04T08:13:21.582Z,11.20
2018-11-04T08:15:48.290Z,11.50
2018-11-04T08:18:14.303Z,11.40
2018-11-04T08:20:40.265Z,11.60
2018-11-04T08:23:06.241Z,11.70
2018-11-04T08:25:32.234Z,11.80
2018-11-04T08:27:58.253Z,11.70
2018-11-04T08:30:24.230Z,11.60
2018-11-04T08:32:50.940Z,11.70
2018-11-04T08:35:16.913Z,11.70
2018-11-04T08:37:42.912Z,11.70
2018-11-04T08:40:09.693Z,11.80
2018-11-04T08:42:35.597Z,11.80
2018-11-04T08:45:01.627Z,11.80
2018-11-04T08:47:27.593Z,11.70
2018-11-04T08:49:53.575Z,11.70
2018-11-04T08:52:19.577Z,11.80
2018-11-04T08:54:45.528Z,11.70
2018-11-04T08:57:11.512Z,11.60
2018-11-04T08:59:37.475Z,11.80
2018-11-04T09:02:03.444Z,11.60
2018-11-04T09:04:29.414Z,11.60
2018-11-04T09:06:55.374Z,11.80
2018-11-04T09:09:21.345Z,11.80
2018-11-04T09:11:47.318Z,11.90
2018-11-04T09:14:13.358Z,11.90
2018-11-04T09:16:39.275Z,11.90
2018-11-04T09:19:05.237Z,11.90
2018-11-04T09:21:31.208Z,11.90
2018-11-04T09:23:57.229Z,12.00
2018-11-04T09:26:23.213Z,12.00
2018-11-04T09:28:49.211Z,12.10
2018-11-04T09:31:15.176Z,12.00
2018-11-04T09:33:41.134Z,11.80
2018-11-04T09:36:07.223Z,11.60
2018-11-04T09:38:33.100Z,11.60
2018-11-04T09:40:59.071Z,11.70
2018-11-04T09:43:25.085Z,11.90
2018-11-04T09:45:51.128Z,11.90
2018-11-04T09:48:17.112Z,11.80
2018-11-04T09:50:43.094Z,11.70
2018-11-04T09:53:09.055Z,11.60
2018-11-04T09:55:35.039Z,11.80
2018-11-04T09:58:01.024Z,11.70
2018-11-04T10:00:26.991Z,11.60
2018-11-04T10:02:52.981Z,11.80
2018-11-04T10:05:18.958Z,11.90
2018-11-04T10:07:44.924Z,11.80
2018-11-04T10:10:10.921Z,11.90
2018-11-04T10:12:36.947Z,11.70
2018-11-04T10:15:02.917Z,11.70
2018-11-04T10:17:28.889Z,11.60
2018-11-04T10:19:55.203Z,11.60
2018-11-04T10:22:20.872Z,11.70
2018-11-04T10:24:46.848Z,11.80
2018-11-04T10:27:12.838Z,11.90
2018-11-04T10:29:38.814Z,11.90
2018-11-04T10:32:04.789Z,12.00
2018-11-04T10:34:30.783Z,12.20
2018-11-04T10:36:56.761Z,12.30
2018-11-04T10:39:22.736Z,12.50
2018-11-04T10:41:48.719Z,12.60
2018-11-04T10:44:14.730Z,12.80
2018-11-04T10:46:40.672Z,12.90
2018-11-04T10:49:06.653Z,12.90
2018-11-04T10:51:32.633Z,12.30
2018-11-04T10:53:58.600Z,12.20
2018-11-04T10:56:24.585Z,12.30
2018-11-04T10:58:50.613Z,12.20
2018-11-04T11:01:16.561Z,12.10
2018-11-04T11:03:42.528Z,12.20
2018-11-04T11:06:08.497Z,12.40
2018-11-04T11:08:34.487Z,12.40
2018-11-04T11:11:00.495Z,12.50
2018-11-04T11:13:26.450Z,12.80
2018-11-04T11:15:52.408Z,12.70
2018-11-04T11:18:18.384Z,12.90
2018-11-04T11:20:44.416Z,12.90
2018-11-04T11:23:10.537Z,12.80
2018-11-04T11:25:36.512Z,13.10
2018-11-04T11:28:02.477Z,12.90
2018-11-04T11:30:28.439Z,13.10
2018-11-04T11:32:54.419Z,13.10
2018-11-04T11:35:20.404Z,13.20
2018-11-04T11:37:46.450Z,13.00
2018-11-04T11:40:12.374Z,13.10
2018-11-04T11:42:38.353Z,13.30
2018-11-04T11:45:04.317Z,13.30
2018-11-04T11:47:30.304Z,13.10
2018-11-04T11:49:56.267Z,13.30
2018-11-04T11:52:22.323Z,12.90
2018-11-04T11:54:48.371Z,13.10
2018-11-04T11:57:15.189Z,13.10
2018-11-04T11:59:41.180Z,13.10
2018-11-04T12:02:07.249Z,13.20
2018-11-04T12:04:33.288Z,13.30
2018-11-04T12:06:59.479Z,13.20
2018-11-04T12:09:25.464Z,13.20
2018-11-04T12:11:52.219Z,13.10
2018-11-04T12:14:18.267Z,13.10
2018-11-04T12:16:44.372Z,13.20
2018-11-04T12:19:10.475Z,13.30
2018-11-04T12:21:36.465Z,13.20
2018-11-04T12:24:02.540Z,13.30
2018-11-04T12:26:28.542Z,13.40
2018-11-04T12:28:55.311Z,13.50
2018-11-04T12:31:21.295Z,13.50
2018-11-04T12:33:48.153Z,13.60
2018-11-04T12:36:14.173Z,13.60
2018-11-04T12:38:40.157Z,13.70
2018-11-04T12:41:06.143Z,13.60
2018-11-04T12:43:32.171Z,13.60
2018-11-04T12:45:58.152Z,13.70
2018-11-04T12:48:25.201Z,13.40
2018-11-04T12:50:51.340Z,13.40
2018-11-04T12:53:18.068Z,13.50
2018-11-04T12:55:44.817Z,13.60
2018-11-04T12:58:11.557Z,13.50
2018-11-04T13:00:38.332Z,13.70
2018-11-04T13:03:04.456Z,13.70
2018-11-04T13:05:30.535Z,13.60
2018-11-04T13:07:56.524Z,13.70
2018-11-04T13:10:22.508Z,13.80
2018-11-04T13:12:48.537Z,13.90
2018-11-04T13:15:14.540Z,13.70
2018-11-04T13:17:40.543Z,13.90
2018-11-04T13:20:06.580Z,13.90
2018-11-04T13:22:32.552Z,13.60
2018-11-04T13:24:58.531Z,13.30
2018-11-04T13:27:24.693Z,13.40
2018-11-04T13:29:50.684Z,13.50
2018-11-04T13:32:17.426Z,13.70
2018-11-04T13:34:44.156Z,13.70
2018-11-04T13:37:10.889Z,13.60
2018-11-04T13:39:36.964Z,13.60
2018-11-04T13:42:02.941Z,13.60
2018-11-04T13:44:28.919Z,13.70
2018-11-04T13:46:54.950Z,13.70
2018-11-04T13:49:21.002Z,13.70
2018-11-04T13:51:46.972Z,13.50
2018-11-04T13:54:12.957Z,13.40
2018-11-04T13:56:38.940Z,13.10
2018-11-04T13:59:04.965Z,13.20
2018-11-04T14:01:30.956Z,13.30
2018-11-04T14:03:56.952Z,13.50
2018-11-04T14:06:22.944Z,13.50
2018-11-04T14:08:48.917Z,13.40
2018-11-04T14:11:14.933Z,13.40
2018-11-04T14:13:40.957Z,13.20
2018-11-04T14:16:07.125Z,13.10
2018-11-04T14:18:33.189Z,13.00
2018-11-04T14:20:59.150Z,13.10
2018-11-04T14:23:25.182Z,13.30
2018-11-04T14:25:51.225Z,13.40
2018-11-04T14:28:17.403Z,13.50
2018-11-04T14:30:43.682Z,13.50
2018-11-04T14:33:09.888Z,13.50
2018-11-04T14:35:35.931Z,13.50
2018-11-04T14:38:02.198Z,13.40
2018-11-04T14:40:28.259Z,13.30
2018-11-04T14:42:54.602Z,13.50
2018-11-04T14:45:20.644Z,13.60
2018-11-04T14:47:46.635Z,13.50
2018-11-04T14:50:12.619Z,13.40
2018-11-04T14:52:38.601Z,13.40
2018-11-04T14:55:04.616Z,13.30
2018-11-04T14:57:30.696Z,13.30
2018-11-04T14:59:56.729Z,13.10
2018-11-04T15:02:23.479Z,13.20
2018-11-04T15:04:50.247Z,13.20
2018-11-04T15:07:16.240Z,13.20
2018-11-04T15:09:42.209Z,13.30
2018-11-04T15:12:08.372Z,13.30
2018-11-04T15:14:34.496Z,13.30
2018-11-04T15:17:00.516Z,13.50
2018-11-04T15:19:26.497Z,13.40
2018-11-04T15:21:52.460Z,13.40
2018-11-04T15:24:18.509Z,13.40
2018-11-04T15:26:45.276Z,13.10
2018-11-04T15:29:11.254Z,13.10
2018-11-04T15:31:37.356Z,13.10
2018-11-04T15:34:03.388Z,13.00
2018-11-04T15:36:29.331Z,13.00
2018-11-04T15:38:56.128Z,13.00
2018-11-04T15:41:22.048Z,12.90
2018-11-04T15:43:48.016Z,12.90
2018-11-04T15:46:14.160Z,13.00
2018-11-04T15:48:40.184Z,13.00
2018-11-04T15:51:06.928Z,13.10
2018-11-04T15:53:32.935Z,13.10
2018-11-04T15:55:59.691Z,13.20
2018-11-04T15:58:25.830Z,13.20
2018-11-04T16:00:51.912Z,13.20
2018-11-04T16:03:17.872Z,13.10
2018-11-04T16:05:43.840Z,13.10
2018-11-04T16:08:09.825Z,13.30
2018-11-04T16:10:35.843Z,13.10
2018-11-04T16:13:01.907Z,12.90
2018-11-04T16:15:27.892Z,12.90
2018-11-04T16:17:53.935Z,12.90
2018-11-04T16:20:20.092Z,12.80
2018-11-04T16:22:46.095Z,12.90
2018-11-04T16:25:12.081Z,12.80
2018-11-04T16:27:38.060Z,12.70
2018-11-04T16:30:04.062Z,12.70
2018-11-04T16:32:30.029Z,12.60
2018-11-04T16:34:56.132Z,12.70
2018-11-04T16:37:22.926Z,12.80
2018-11-04T16:39:49.632Z,12.70
2018-11-04T16:42:15.611Z,12.70
2018-11-04T16:44:41.791Z,12.60
2018-11-04T16:47:08.445Z,12.60
2018-11-04T16:49:34.440Z,12.60
2018-11-04T16:52:00.444Z,12.60
2018-11-04T16:54:26.423Z,12.70
2018-11-04T16:56:53.161Z,12.90
2018-11-04T16:59:19.887Z,12.80
2018-11-04T17:01:45.893Z,12.80
2018-11-04T17:04:11.992Z,12.80
2018-11-04T17:06:37.873Z,12.80
2018-11-04T17:09:04.613Z,12.80
2018-11-04T17:11:31.428Z,12.70
2018-11-04T17:13:57.481Z,12.70
2018-11-04T17:16:24.183Z,12.60
2018-11-04T17:18:50.184Z,12.60
2018-11-04T17:21:16.223Z,12.70
2018-11-04T17:23:42.180Z,12.60
2018-11-04T17:26:08.131Z,12.60
2018-11-04T17:28:34.135Z,12.50
2018-11-04T17:31:01.020Z,12.50
2018-11-04T17:33:26.995Z,12.50
2018-11-04T17:35:53.803Z,12.50
2018-11-04T17:38:19.979Z,12.50
2018-11-04T17:40:46.701Z,12.50
2018-11-04T17:43:13.459Z,12.30
2018-11-04T17:45:40.177Z,12.40
2018-11-04T17:48:06.409Z,12.40
2018-11-04T17:50:32.454Z,12.60
2018-11-04T17:52:59.168Z,12.80
2018-11-04T17:55:25.140Z,12.80
2018-11-04T17:57:51.132Z,12.80
2018-11-04T18:00:17.129Z,12.90
2018-11-04T18:02:43.127Z,12.80
2018-11-04T18:05:09.203Z,12.80
2018-11-04T18:07:35.232Z,12.80
2018-11-04T18:10:01.305Z,12.70
2018-11-04T18:12:27.284Z,12.60
2018-11-04T18:14:54.033Z,12.80
2018-11-04T18:17:20.195Z,12.80
2018-11-04T18:19:46.185Z,12.40
2018-11-04T18:22:12.215Z,12.30
2018-11-04T18:24:38.237Z,12.30
2018-11-04T18:27:04.216Z,12.30
2018-11-04T18:29:30.229Z,12.30
2018-11-04T18:31:56.259Z,12.50
2018-11-04T18:34:22.241Z,12.30
2018-11-04T18:36:48.234Z,12.40
2018-11-04T18:39:14.193Z,12.40
2018-11-04T18:41:40.198Z,12.60
2018-11-04T18:44:06.449Z,12.60
2018-11-04T18:46:32.368Z,12.60
2018-11-04T18:48:58.332Z,12.50
2018-11-04T18:51:24.340Z,12.40
2018-11-04T18:53:50.311Z,12.40
2018-11-04T18:56:16.306Z,12.30
2018-11-04T18:58:42.275Z,12.40
2018-11-04T19:01:08.261Z,12.40
2018-11-04T19:03:34.973Z,12.40
2018-11-04T19:06:01.132Z,12.40
2018-11-04T19:08:27.844Z,12.40
2018-11-04T19:10:53.891Z,12.40
2018-11-04T19:13:20.009Z,12.30
2018-11-04T19:15:45.988Z,12.00
2018-11-04T19:18:12.016Z,12.20
2018-11-04T19:20:37.971Z,12.00
2018-11-04T19:23:03.955Z,12.00
2018-11-04T19:25:29.955Z,12.10
2018-11-04T19:27:55.933Z,12.30
2018-11-04T19:30:21.894Z,12.30
2018-11-04T19:32:48.662Z,12.40
2018-11-04T19:35:14.647Z,12.30
2018-11-04T19:37:41.363Z,12.40
2018-11-04T19:40:07.472Z,12.40
2018-11-04T19:42:33.691Z,12.30
2018-11-04T19:44:59.516Z,12.20
2018-11-04T19:47:25.516Z,12.20
2018-11-04T19:49:51.502Z,12.20
2018-11-04T19:52:17.509Z,12.20
2018-11-04T19:54:43.895Z,12.00
2018-11-04T19:57:11.289Z,12.10
2018-11-04T19:59:37.286Z,12.10
2018-11-04T20:02:04.817Z,12.10
2018-11-04T20:04:32.541Z,12.10
2018-11-04T20:07:00.017Z,12.20
2018-11-04T20:09:26.965Z,12.20
2018-11-04T20:11:54.010Z,12.00
2018-11-04T20:14:20.172Z,11.80
2018-11-04T20:16:46.134Z,12.00
2018-11-04T20:19:12.177Z,12.00
2018-11-04T20:21:38.091Z,11.90
2018-11-04T20:24:04.823Z,12.00
2018-11-04T20:26:30.774Z,12.00
2018-11-04T20:28:56.763Z,12.20
2018-11-04T20:31:22.710Z,12.10
2018-11-04T20:33:49.458Z,12.20
2018-11-04T20:36:15.502Z,12.20
2018-11-04T20:38:41.491Z,12.30
2018-11-04T20:41:25.207Z,12.30
2018-11-04T20:43:55.185Z,12.30
2018-11-04T20:46:22.750Z,12.40
2018-11-04T20:48:56.059Z,12.20
2018-11-04T20:51:22.536Z,12.20
2018-11-04T20:53:48.462Z,12.20
2018-11-04T20:56:14.431Z,12.20
2018-11-04T20:58:40.475Z,12.00
2018-11-04T21:01:06.430Z,12.00
2018-11-04T21:03:32.459Z,12.10
2018-11-04T21:05:58.415Z,12.20
2018-11-04T21:08:24.359Z,12.00
2018-11-04T21:10:50.303Z,12.20
2018-11-04T21:13:16.250Z,12.20
2018-11-04T21:15:42.244Z,12.10
2018-11-04T21:18:08.161Z,11.90
2018-11-04T21:20:34.122Z,12.00
2018-11-04T21:23:00.095Z,12.10
2018-11-04T21:25:26.170Z,12.20
2018-11-04T21:27:52.075Z,12.20
2018-11-04T21:30:18.030Z,12.30
2018-11-04T21:32:43.973Z,12.40
2018-11-04T21:35:09.923Z,12.40
2018-11-04T21:37:35.948Z,12.40
2018-11-04T21:40:01.855Z,12.40
2018-11-04T21:42:28.000Z,12.40
2018-11-04T21:44:53.852Z,12.50
2018-11-04T21:47:19.854Z,12.40
2018-11-04T21:49:45.786Z,12.40
2018-11-04T21:52:11.775Z,12.40
2018-11-04T21:54:37.733Z,12.30
2018-11-04T21:57:03.707Z,12.30
2018-11-04T21:59:30.553Z,12.40
2018-11-04T22:01:56.419Z,12.40
2018-11-04T22:04:22.442Z,12.50
2018-11-04T22:06:48.358Z,12.40
2018-11-04T22:09:14.290Z,12.40
2018-11-04T22:11:40.315Z,12.50
2018-11-04T22:14:06.361Z,12.50
2018-11-04T22:16:32.259Z,12.40
2018-11-04T22:18:58.216Z,12.40
2018-11-04T22:21:24.919Z,12.20
2018-11-04T22:23:50.871Z,12.20
2018-11-04T22:26:16.794Z,12.20
2018-11-04T22:28:43.580Z,12.20
2018-11-04T22:31:09.519Z,12.30
2018-11-04T22:33:35.492Z,12.30
2018-11-04T22:36:01.489Z,12.30
2018-11-04T22:38:27.431Z,12.20
2018-11-04T22:40:53.405Z,12.20
2018-11-04T22:43:19.359Z,12.30
2018-11-04T22:45:46.039Z,12.40
2018-11-04T22:48:12.049Z,12.40
2018-11-04T22:50:38.027Z,12.50
2018-11-04T22:53:04.741Z,12.60
2018-11-04T22:55:30.710Z,12.60
2018-11-04T22:57:56.715Z,12.60
2018-11-04T23:00:22.689Z,12.70
2018-11-04T23:02:48.639Z,12.80
2018-11-04T23:05:14.603Z,12.80
2018-11-04T23:07:40.557Z,12.90
2018-11-04T23:10:06.505Z,12.90
2018-11-04T23:12:32.458Z,12.80
2018-11-04T23:14:58.418Z,12.80
2018-11-04T23:17:24.373Z,12.80
2018-11-04T23:19:50.323Z,12.80
2018-11-04T23:22:16.286Z,12.80
2018-11-04T23:24:42.270Z,12.90
2018-11-04T23:27:08.337Z,12.90
2018-11-04T23:29:34.212Z,12.90
2018-11-04T23:32:00.202Z,12.90
2018-11-04T23:34:26.154Z,12.90
2018-11-04T23:36:52.113Z,13.00
2018-11-04T23:39:18.055Z,13.00
2018-11-04T23:41:44.020Z,13.00
2018-11-04T23:44:09.959Z,13.10
2018-11-04T23:46:35.938Z,13.00
2018-11-04T23:49:02.672Z,12.90
2018-11-04T23:51:28.666Z,12.90
2018-11-04T23:53:54.628Z,12.60
2018-11-04T23:56:20.566Z,12.50
2018-11-04T23:58:46.503Z,12.60
